sensor_id;sensor_type;location;lat;lon;timestamp;pressure;altitude;pressure_sealevel;temperature;humidity
60832;BME280;46665;51.558;-0.448;2023-08-21T00:00:54;101840.50;;;16.04;100.00
60832;BME280;46665;51.558;-0.448;2023-08-21T00:03:38;101846.22;;;16.08;100.00
60832;BME280;46665;51.558;-0.448;2023-08-21T00:06:22;101845.41;;;16.07;100.00
60832;BME280;46665;51.558;-0.448;2023-08-21T00:09:06;101848.47;;;16.06;100.00
60832;BME280;46665;51.558;-0.448;2023-08-21T00:11:50;101851.22;;;16.06;100.00
60832;BME280;46665;51.558;-0.448;2023-08-21T00:14:34;101842.22;;;15.95;100.00
60832;BME280;46665;51.558;-0.448;2023-08-21T00:17:18;101844.97;;;15.95;100.00
60832;BME280;46665;51.558;-0.448;2023-08-21T00:20:02;101830.97;;;15.96;100.00
60832;BME280;46665;51.558;-0.448;2023-08-21T00:22:46;101835.09;;;15.94;100.00
60832;BME280;46665;51.558;-0.448;2023-08-21T00:25:30;101832.19;;;15.85;100.00
60832;BME280;46665;51.558;-0.448;2023-08-21T00:28:15;101839.06;;;15.82;100.00
60832;BME280;46665;51.558;-0.448;2023-08-21T00:31:03;101840.44;;;15.80;100.00
60832;BME280;46665;51.558;-0.448;2023-08-21T00:33:48;101834.16;;;15.74;100.00
60832;BME280;46665;51.558;-0.448;2023-08-21T00:36:32;101840.22;;;15.71;100.00
60832;BME280;46665;51.558;-0.448;2023-08-21T00:39:16;101842.97;;;15.71;100.00
60832;BME280;46665;51.558;-0.448;2023-08-21T00:42:00;101845.19;;;15.69;100.00
60832;BME280;46665;51.558;-0.448;2023-08-21T00:44:44;101842.16;;;15.71;100.00
60832;BME280;46665;51.558;-0.448;2023-08-21T00:47:28;101838.63;;;15.65;100.00
60832;BME280;46665;51.558;-0.448;2023-08-21T00:50:13;101842.44;;;15.64;100.00
60832;BME280;46665;51.558;-0.448;2023-08-21T00:52:58;101842.19;;;15.66;100.00
60832;BME280;46665;51.558;-0.448;2023-08-21T00:55:43;101841.41;;;15.60;100.00
60832;BME280;46665;51.558;-0.448;2023-08-21T00:58:27;101846.88;;;15.60;100.00
60832;BME280;46665;51.558;-0.448;2023-08-21T01:01:12;101841.13;;;15.56;100.00
60832;BME280;46665;51.558;-0.448;2023-08-21T01:03:58;101841.94;;;15.57;100.00
60832;BME280;46665;51.558;-0.448;2023-08-21T01:06:43;101854.06;;;15.51;100.00
60832;BME280;46665;51.558;-0.448;2023-08-21T01:09:34;101840.66;;;15.44;100.00
60832;BME280;46665;51.558;-0.448;2023-08-21T01:12:35;101848.91;;;15.44;100.00
60832;BME280;46665;51.558;-0.448;2023-08-21T01:15:21;101847.84;;;15.40;100.00
60832;BME280;46665;51.558;-0.448;2023-08-21T01:18:06;101841.28;;;15.36;100.00
60832;BME280;46665;51.558;-0.448;2023-08-21T01:20:52;101851.69;;;15.39;100.00
60832;BME280;46665;51.558;-0.448;2023-08-21T01:23:37;101849.22;;;15.37;100.00
60832;BME280;46665;51.558;-0.448;2023-08-21T01:26:21;101846.19;;;15.39;100.00
60832;BME280;46665;51.558;-0.448;2023-08-21T01:29:05;101843.44;;;15.39;100.00
60832;BME280;46665;51.558;-0.448;2023-08-21T01:34:46;101849.25;;;15.32;100.00
60832;BME280;46665;51.558;-0.448;2023-08-21T01:37:31;101846.53;;;15.32;100.00
60832;BME280;46665;51.558;-0.448;2023-08-21T01:40:23;101848.19;;;15.28;100.00
60832;BME280;46665;51.558;-0.448;2023-08-21T01:43:08;101842.72;;;15.23;100.00
60832;BME280;46665;51.558;-0.448;2023-08-21T01:45:52;101833.16;;;15.21;100.00
60832;BME280;46665;51.558;-0.448;2023-08-21T01:48:36;101838.34;;;15.22;100.00
60832;BME280;46665;51.558;-0.448;2023-08-21T01:51:20;101837.84;;;15.15;100.00
60832;BME280;46665;51.558;-0.448;2023-08-21T01:54:04;101840.59;;;15.15;100.00
60832;BME280;46665;51.558;-0.448;2023-08-21T01:56:48;101842.22;;;15.16;100.00
60832;BME280;46665;51.558;-0.448;2023-08-21T01:59:32;101840.28;;;15.16;100.00
60832;BME280;46665;51.558;-0.448;2023-08-21T02:02:16;101848.78;;;15.20;100.00
60832;BME280;46665;51.558;-0.448;2023-08-21T02:05:00;101852.31;;;15.26;100.00
60832;BME280;46665;51.558;-0.448;2023-08-21T02:07:44;101852.59;;;15.29;100.00
60832;BME280;46665;51.558;-0.448;2023-08-21T02:10:28;101855.31;;;15.29;100.00
60832;BME280;46665;51.558;-0.448;2023-08-21T02:13:12;101860.22;;;15.32;100.00
60832;BME280;46665;51.558;-0.448;2023-08-21T02:15:56;101855.28;;;15.34;100.00
60832;BME280;46665;51.558;-0.448;2023-08-21T02:18:40;101860.78;;;15.34;100.00
60832;BME280;46665;51.558;-0.448;2023-08-21T02:21:24;101854.69;;;15.43;100.00
60832;BME280;46665;51.558;-0.448;2023-08-21T02:24:08;101855.22;;;15.45;100.00
60832;BME280;46665;51.558;-0.448;2023-08-21T02:26:52;101861.22;;;15.47;100.00
60832;BME280;46665;51.558;-0.448;2023-08-21T02:29:36;101861.53;;;15.45;100.00
60832;BME280;46665;51.558;-0.448;2023-08-21T02:32:20;101859.03;;;15.49;100.00
60832;BME280;46665;51.558;-0.448;2023-08-21T02:35:04;101868.59;;;15.51;100.00
60832;BME280;46665;51.558;-0.448;2023-08-21T02:37:48;101861.72;;;15.54;100.00
60832;BME280;46665;51.558;-0.448;2023-08-21T02:40:32;101862.53;;;15.54;100.00
60832;BME280;46665;51.558;-0.448;2023-08-21T02:43:16;101861.25;;;15.42;100.00
60832;BME280;46665;51.558;-0.448;2023-08-21T02:46:00;101862.09;;;15.42;100.00
60832;BME280;46665;51.558;-0.448;2023-08-21T02:48:44;101864.00;;;15.42;100.00
60832;BME280;46665;51.558;-0.448;2023-08-21T02:51:28;101858.78;;;15.45;100.00
60832;BME280;46665;51.558;-0.448;2023-08-21T02:54:12;101860.72;;;15.45;100.00
60832;BME280;46665;51.558;-0.448;2023-08-21T02:56:56;101855.50;;;15.43;100.00
60832;BME280;46665;51.558;-0.448;2023-08-21T02:59:40;101863.22;;;15.36;100.00
60832;BME280;46665;51.558;-0.448;2023-08-21T03:02:24;101867.69;;;15.27;100.00
60832;BME280;46665;51.558;-0.448;2023-08-21T03:05:08;101862.50;;;15.20;100.00
60832;BME280;46665;51.558;-0.448;2023-08-21T03:07:53;101870.69;;;15.25;100.00
60832;BME280;46665;51.558;-0.448;2023-08-21T03:10:37;101867.69;;;15.16;100.00
60832;BME280;46665;51.558;-0.448;2023-08-21T03:13:21;101867.47;;;15.13;100.00
60832;BME280;46665;51.558;-0.448;2023-08-21T03:16:05;101870.53;;;15.01;100.00
60832;BME280;46665;51.558;-0.448;2023-08-21T03:18:57;101876.00;;;15.01;100.00
60832;BME280;46665;51.558;-0.448;2023-08-21T03:21:41;101871.38;;;14.97;100.00
60832;BME280;46665;51.558;-0.448;2023-08-21T03:24:25;101870.31;;;14.87;100.00
60832;BME280;46665;51.558;-0.448;2023-08-21T03:27:09;101864.84;;;14.82;100.00
60832;BME280;46665;51.558;-0.448;2023-08-21T03:29:53;101875.81;;;14.82;100.00
60832;BME280;46665;51.558;-0.448;2023-08-21T03:32:37;101870.34;;;14.82;100.00
60832;BME280;46665;51.558;-0.448;2023-08-21T03:35:21;101869.53;;;14.77;100.00
60832;BME280;46665;51.558;-0.448;2023-08-21T03:38:05;101877.75;;;14.77;100.00
60832;BME280;46665;51.558;-0.448;2023-08-21T03:40:49;101872.31;;;14.71;100.00
60832;BME280;46665;51.558;-0.448;2023-08-21T03:43:33;101863.25;;;14.71;100.00
60832;BME280;46665;51.558;-0.448;2023-08-21T03:46:17;101869.03;;;14.69;100.00
60832;BME280;46665;51.558;-0.448;2023-08-21T03:49:01;101876.09;;;14.76;100.00
60832;BME280;46665;51.558;-0.448;2023-08-21T03:51:45;101875.56;;;14.79;100.00
60832;BME280;46665;51.558;-0.448;2023-08-21T03:54:29;101875.03;;;14.77;100.00
60832;BME280;46665;51.558;-0.448;2023-08-21T03:57:13;101873.69;;;14.69;100.00
60832;BME280;46665;51.558;-0.448;2023-08-21T03:59:57;101867.63;;;14.72;100.00
60832;BME280;46665;51.558;-0.448;2023-08-21T04:02:41;101872.03;;;14.68;100.00
60832;BME280;46665;51.558;-0.448;2023-08-21T04:05:25;101872.84;;;14.68;100.00
60832;BME280;46665;51.558;-0.448;2023-08-21T04:08:08;101874.19;;;14.76;100.00
60832;BME280;46665;51.558;-0.448;2023-08-21T04:10:52;101875.00;;;14.82;100.00
60832;BME280;46665;51.558;-0.448;2023-08-21T04:13:37;101879.63;;;14.91;100.00
60832;BME280;46665;51.558;-0.448;2023-08-21T04:16:21;101881.50;;;14.96;100.00
60832;BME280;46665;51.558;-0.448;2023-08-21T04:19:05;101881.78;;;15.00;100.00
60832;BME280;46665;51.558;-0.448;2023-08-21T04:21:49;101879.09;;;14.89;100.00
60832;BME280;46665;51.558;-0.448;2023-08-21T04:24:33;101875.78;;;14.92;100.00
60832;BME280;46665;51.558;-0.448;2023-08-21T04:27:17;101884.53;;;14.94;100.00
60832;BME280;46665;51.558;-0.448;2023-08-21T04:30:01;101884.53;;;14.94;100.00
60832;BME280;46665;51.558;-0.448;2023-08-21T04:32:47;101890.59;;;14.91;100.00
60832;BME280;46665;51.558;-0.448;2023-08-21T04:35:36;101882.38;;;14.91;100.00
60832;BME280;46665;51.558;-0.448;2023-08-21T04:38:21;101897.13;;;14.95;100.00
60832;BME280;46665;51.558;-0.448;2023-08-21T04:41:08;101885.06;;;15.02;100.00
60832;BME280;46665;51.558;-0.448;2023-08-21T04:43:52;101889.97;;;15.05;100.00
60832;BME280;46665;51.558;-0.448;2023-08-21T04:46:36;101891.03;;;15.09;100.00
60832;BME280;46665;51.558;-0.448;2023-08-21T04:49:20;101886.66;;;15.13;100.00
60832;BME280;46665;51.558;-0.448;2023-08-21T04:52:04;101887.22;;;15.10;100.00
60832;BME280;46665;51.558;-0.448;2023-08-21T04:54:49;101886.09;;;15.16;100.00
60832;BME280;46665;51.558;-0.448;2023-08-21T04:57:33;101889.66;;;15.11;100.00
60832;BME280;46665;51.558;-0.448;2023-08-21T05:00:17;101877.06;;;15.10;100.00
60832;BME280;46665;51.558;-0.448;2023-08-21T05:03:01;101887.22;;;15.10;100.00
60832;BME280;46665;51.558;-0.448;2023-08-21T05:05:54;101885.03;;;15.12;100.00
60832;BME280;46665;51.558;-0.448;2023-08-21T05:08:38;101884.19;;;15.06;100.00
60832;BME280;46665;51.558;-0.448;2023-08-21T05:11:22;101883.66;;;15.09;100.00
60832;BME280;46665;51.558;-0.448;2023-08-21T05:14:06;101888.59;;;15.07;100.00
60832;BME280;46665;51.558;-0.448;2023-08-21T05:16:50;101885.84;;;15.07;100.00
60832;BME280;46665;51.558;-0.448;2023-08-21T05:19:34;101892.69;;;15.15;100.00
60832;BME280;46665;51.558;-0.448;2023-08-21T05:22:18;101893.75;;;15.14;100.00
60832;BME280;46665;51.558;-0.448;2023-08-21T05:25:02;101892.94;;;15.18;100.00
60832;BME280;46665;51.558;-0.448;2023-08-21T05:27:46;101887.44;;;15.18;100.00
60832;BME280;46665;51.558;-0.448;2023-08-21T05:30:30;101896.72;;;15.28;100.00
60832;BME280;46665;51.558;-0.448;2023-08-21T05:33:14;101897.25;;;15.35;100.00
60832;BME280;46665;51.558;-0.448;2023-08-21T05:35:58;101908.19;;;15.40;100.00
60832;BME280;46665;51.558;-0.448;2023-08-21T05:38:42;101914.25;;;15.37;100.00
60832;BME280;46665;51.558;-0.448;2023-08-21T05:41:26;101912.34;;;15.32;100.00
60832;BME280;46665;51.558;-0.448;2023-08-21T05:44:10;101909.28;;;15.34;100.00
60832;BME280;46665;51.558;-0.448;2023-08-21T05:46:53;101914.25;;;15.37;100.00
60832;BME280;46665;51.558;-0.448;2023-08-21T05:49:38;101919.41;;;15.38;100.00
60832;BME280;46665;51.558;-0.448;2023-08-21T05:52:22;101922.44;;;15.42;100.00
60832;BME280;46665;51.558;-0.448;2023-08-21T05:55:06;101926.81;;;15.43;100.00
60832;BME280;46665;51.558;-0.448;2023-08-21T05:57:51;101928.16;;;15.46;100.00
60832;BME280;46665;51.558;-0.448;2023-08-21T06:00:35;101928.97;;;15.46;100.00
60832;BME280;46665;51.558;-0.448;2023-08-21T06:03:19;101933.09;;;15.44;100.00
60832;BME280;46665;51.558;-0.448;2023-08-21T06:06:03;101930.66;;;15.42;100.00
60832;BME280;46665;51.558;-0.448;2023-08-21T06:08:46;101924.38;;;15.36;100.00
60832;BME280;46665;51.558;-0.448;2023-08-21T06:11:30;101938.63;;;15.38;100.00
60832;BME280;46665;51.558;-0.448;2023-08-21T06:14:14;101940.81;;;15.36;100.00
60832;BME280;46665;51.558;-0.448;2023-08-21T06:17:02;101930.41;;;15.38;100.00
60832;BME280;46665;51.558;-0.448;2023-08-21T06:19:47;101939.75;;;15.37;100.00
60832;BME280;46665;51.558;-0.448;2023-08-21T06:22:37;101938.38;;;15.35;100.00
60832;BME280;46665;51.558;-0.448;2023-08-21T06:25:21;101941.66;;;15.37;100.00
60832;BME280;46665;51.558;-0.448;2023-08-21T06:28:05;101942.47;;;15.37;100.00
60832;BME280;46665;51.558;-0.448;2023-08-21T06:30:56;101940.28;;;15.39;100.00
60832;BME280;46665;51.558;-0.448;2023-08-21T06:33:41;101953.44;;;15.37;100.00
60832;BME280;46665;51.558;-0.448;2023-08-21T06:36:25;101962.22;;;15.39;100.00
60832;BME280;46665;51.558;-0.448;2023-08-21T06:39:09;101950.72;;;15.32;100.00
60832;BME280;46665;51.558;-0.448;2023-08-21T06:41:52;101949.09;;;15.26;100.00
60832;BME280;46665;51.558;-0.448;2023-08-21T06:44:36;101955.94;;;15.29;100.00
60832;BME280;46665;51.558;-0.448;2023-08-21T06:47:20;101949.41;;;15.25;100.00
60832;BME280;46665;51.558;-0.448;2023-08-21T06:50:04;101943.06;;;15.24;100.00
60832;BME280;46665;51.558;-0.448;2023-08-21T06:52:49;101938.97;;;15.27;100.00
60832;BME280;46665;51.558;-0.448;2023-08-21T06:55:32;101939.25;;;15.25;100.00
60832;BME280;46665;51.558;-0.448;2023-08-21T06:58:16;101940.06;;;15.26;100.00
60832;BME280;46665;51.558;-0.448;2023-08-21T07:01:01;101942.53;;;15.27;100.00
60832;BME280;46665;51.558;-0.448;2023-08-21T07:03:44;101941.97;;;15.30;100.00
60832;BME280;46665;51.558;-0.448;2023-08-21T07:06:30;101948.47;;;15.45;100.00
60832;BME280;46665;51.558;-0.448;2023-08-21T07:09:14;101947.09;;;15.47;100.00
60832;BME280;46665;51.558;-0.448;2023-08-21T07:11:58;101951.66;;;15.62;100.00
60832;BME280;46665;51.558;-0.448;2023-08-21T07:14:42;101951.13;;;15.70;100.00
60832;BME280;46665;51.558;-0.448;2023-08-21T07:17:26;101958.97;;;15.82;100.00
60832;BME280;46665;51.558;-0.448;2023-08-21T07:20:10;101953.75;;;15.86;100.00
60832;BME280;46665;51.558;-0.448;2023-08-21T07:22:55;101946.88;;;15.88;100.00
60832;BME280;46665;51.558;-0.448;2023-08-21T07:25:38;101953.69;;;15.96;100.00
60832;BME280;46665;51.558;-0.448;2023-08-21T07:28:22;101949.25;;;16.00;100.00
60832;BME280;46665;51.558;-0.448;2023-08-21T07:31:06;101951.94;;;16.05;100.00
60832;BME280;46665;51.558;-0.448;2023-08-21T07:33:50;101951.91;;;16.10;100.00
60832;BME280;46665;51.558;-0.448;2023-08-21T07:36:34;101948.06;;;16.11;100.00
60832;BME280;46665;51.558;-0.448;2023-08-21T07:39:18;101951.59;;;16.17;100.00
60832;BME280;46665;51.558;-0.448;2023-08-21T07:42:02;101955.72;;;16.14;100.00
60832;BME280;46665;51.558;-0.448;2023-08-21T07:44:47;101948.31;;;16.15;100.00
60832;BME280;46665;51.558;-0.448;2023-08-21T07:47:30;101958.97;;;16.21;100.00
60832;BME280;46665;51.558;-0.448;2023-08-21T07:50:14;101961.69;;;16.27;100.00
60832;BME280;46665;51.558;-0.448;2023-08-21T07:53:00;101958.88;;;16.32;100.00
60832;BME280;46665;51.558;-0.448;2023-08-21T07:55:44;101968.94;;;16.46;100.00
60832;BME280;46665;51.558;-0.448;2023-08-21T07:58:30;101950.63;;;16.61;100.00
60832;BME280;46665;51.558;-0.448;2023-08-21T08:01:14;101952.13;;;16.77;100.00
60832;BME280;46665;51.558;-0.448;2023-08-21T08:03:58;101948.28;;;16.78;100.00
60832;BME280;46665;51.558;-0.448;2023-08-21T08:06:42;101953.75;;;16.83;100.00
60832;BME280;46665;51.558;-0.448;2023-08-21T08:09:26;101941.72;;;16.79;100.00
60832;BME280;46665;51.558;-0.448;2023-08-21T08:12:10;101939.78;;;16.75;100.00
60832;BME280;46665;51.558;-0.448;2023-08-21T08:14:54;101943.34;;;16.75;100.00
60832;BME280;46665;51.558;-0.448;2023-08-21T08:17:38;101942.47;;;16.85;100.00
60832;BME280;46665;51.558;-0.448;2023-08-21T08:20:22;101945.69;;;16.92;100.00
60832;BME280;46665;51.558;-0.448;2023-08-21T08:23:06;101934.63;;;16.97;100.00
60832;BME280;46665;51.558;-0.448;2023-08-21T08:25:50;101946.84;;;17.10;100.00
60832;BME280;46665;51.558;-0.448;2023-08-21T08:28:34;101936.53;;;17.21;100.00
60832;BME280;46665;51.558;-0.448;2023-08-21T08:31:20;101930.16;;;17.25;100.00
60832;BME280;46665;51.558;-0.448;2023-08-21T08:34:04;101936.94;;;17.33;100.00
60832;BME280;46665;51.558;-0.448;2023-08-21T08:36:49;101943.31;;;17.28;100.00
60832;BME280;46665;51.558;-0.448;2023-08-21T08:39:33;101949.41;;;17.25;100.00
60832;BME280;46665;51.558;-0.448;2023-08-21T08:42:17;101949.47;;;17.20;100.00
60832;BME280;46665;51.558;-0.448;2023-08-21T08:45:02;101949.25;;;17.17;100.00
60832;BME280;46665;51.558;-0.448;2023-08-21T08:47:47;101948.31;;;17.02;100.00
60832;BME280;46665;51.558;-0.448;2023-08-21T08:50:32;101946.66;;;17.01;100.00
60832;BME280;46665;51.558;-0.448;2023-08-21T08:53:17;101943.50;;;17.13;100.00
60832;BME280;46665;51.558;-0.448;2023-08-21T08:56:01;101939.00;;;17.22;100.00
60832;BME280;46665;51.558;-0.448;2023-08-21T08:58:45;101942.38;;;17.38;100.00
60832;BME280;46665;51.558;-0.448;2023-08-21T09:01:30;101938.72;;;17.62;100.00
60832;BME280;46665;51.558;-0.448;2023-08-21T09:04:15;101951.03;;;17.88;100.00
60832;BME280;46665;51.558;-0.448;2023-08-21T09:07:06;101950.28;;;18.02;99.60
60832;BME280;46665;51.558;-0.448;2023-08-21T09:09:51;101945.13;;;17.95;100.00
60832;BME280;46665;51.558;-0.448;2023-08-21T09:12:37;101948.50;;;17.92;99.60
60832;BME280;46665;51.558;-0.448;2023-08-21T09:15:27;101948.38;;;17.83;98.48
60832;BME280;46665;51.558;-0.448;2023-08-21T09:18:13;101947.97;;;17.71;98.73
60832;BME280;46665;51.558;-0.448;2023-08-21T09:21:01;101934.50;;;17.69;100.00
60832;BME280;46665;51.558;-0.448;2023-08-21T09:23:46;101941.34;;;17.72;100.00
60832;BME280;46665;51.558;-0.448;2023-08-21T09:26:32;101939.63;;;17.76;100.00
60832;BME280;46665;51.558;-0.448;2023-08-21T09:29:17;101935.75;;;17.77;99.89
60832;BME280;46665;51.558;-0.448;2023-08-21T09:32:01;101945.09;;;17.81;100.00
60832;BME280;46665;51.558;-0.448;2023-08-21T09:34:45;101934.00;;;17.86;100.00
60832;BME280;46665;51.558;-0.448;2023-08-21T09:37:30;101936.59;;;17.96;99.92
60832;BME280;46665;51.558;-0.448;2023-08-21T09:40:15;101942.22;;;18.05;99.24
60832;BME280;46665;51.558;-0.448;2023-08-21T09:42:59;101939.38;;;18.10;99.96
60832;BME280;46665;51.558;-0.448;2023-08-21T09:45:48;101946.75;;;18.15;99.42
60832;BME280;46665;51.558;-0.448;2023-08-21T09:48:33;101945.66;;;18.16;98.06
60832;BME280;46665;51.558;-0.448;2023-08-21T09:51:16;101946.25;;;18.13;97.02
60832;BME280;46665;51.558;-0.448;2023-08-21T09:54:01;101948.34;;;18.02;95.86
60832;BME280;46665;51.558;-0.448;2023-08-21T09:56:48;101945.66;;;17.97;95.84
60832;BME280;46665;51.558;-0.448;2023-08-21T09:59:33;101938.44;;;18.01;97.54
60832;BME280;46665;51.558;-0.448;2023-08-21T10:02:17;101935.69;;;18.01;98.96
60832;BME280;46665;51.558;-0.448;2023-08-21T10:05:01;101933.88;;;18.10;98.01
60832;BME280;46665;51.558;-0.448;2023-08-21T10:07:48;101930.63;;;18.08;97.93
60832;BME280;46665;51.558;-0.448;2023-08-21T10:10:34;101937.56;;;18.06;97.62
60832;BME280;46665;51.558;-0.448;2023-08-21T10:13:19;101932.50;;;18.13;95.99
60832;BME280;46665;51.558;-0.448;2023-08-21T10:16:07;101921.47;;;18.13;95.09
60832;BME280;46665;51.558;-0.448;2023-08-21T10:18:51;101927.47;;;18.15;95.26
60832;BME280;46665;51.558;-0.448;2023-08-21T10:21:36;101928.59;;;18.14;95.58
60832;BME280;46665;51.558;-0.448;2023-08-21T10:24:28;101914.22;;;18.17;96.52
60832;BME280;46665;51.558;-0.448;2023-08-21T10:27:12;101916.38;;;18.20;94.12
60832;BME280;46665;51.558;-0.448;2023-08-21T10:29:57;101918.03;;;18.21;95.22
60832;BME280;46665;51.558;-0.448;2023-08-21T10:32:46;101924.25;;;18.27;93.63
60832;BME280;46665;51.558;-0.448;2023-08-21T10:35:31;101926.31;;;18.35;95.02
60832;BME280;46665;51.558;-0.448;2023-08-21T10:38:18;101920.94;;;18.44;95.36
60832;BME280;46665;51.558;-0.448;2023-08-21T10:41:06;101930.34;;;18.56;94.97
60832;BME280;46665;51.558;-0.448;2023-08-21T10:43:51;101914.72;;;18.66;93.59
60832;BME280;46665;51.558;-0.448;2023-08-21T10:46:50;101909.56;;;18.78;90.67
60832;BME280;46665;51.558;-0.448;2023-08-21T10:49:35;101918.44;;;18.89;91.91
60832;BME280;46665;51.558;-0.448;2023-08-21T10:52:27;101908.25;;;18.89;90.59
60832;BME280;46665;51.558;-0.448;2023-08-21T10:55:13;101905.78;;;18.88;88.95
60832;BME280;46665;51.558;-0.448;2023-08-21T10:57:57;101903.53;;;18.90;88.22
60832;BME280;46665;51.558;-0.448;2023-08-21T11:00:41;101913.84;;;18.98;89.62
60832;BME280;46665;51.558;-0.448;2023-08-21T11:03:25;101907.41;;;19.02;88.85
60832;BME280;46665;51.558;-0.448;2023-08-21T11:06:10;101915.38;;;19.18;86.39
60832;BME280;46665;51.558;-0.448;2023-08-21T11:08:54;101899.84;;;19.22;86.59
60832;BME280;46665;51.558;-0.448;2023-08-21T11:11:38;101895.72;;;19.33;86.68
60832;BME280;46665;51.558;-0.448;2023-08-21T11:14:25;101892.22;;;19.41;87.42
60832;BME280;46665;51.558;-0.448;2023-08-21T11:17:10;101900.81;;;19.76;89.02
60832;BME280;46665;51.558;-0.448;2023-08-21T11:19:55;101892.59;;;20.07;83.94
60832;BME280;46665;51.558;-0.448;2023-08-21T11:22:40;101898.69;;;20.18;81.86
60832;BME280;46665;51.558;-0.448;2023-08-21T11:25:24;101895.22;;;20.12;81.13
60832;BME280;46665;51.558;-0.448;2023-08-21T11:28:08;101890.88;;;20.20;82.54
60832;BME280;46665;51.558;-0.448;2023-08-21T11:30:52;101891.09;;;20.32;79.97
60832;BME280;46665;51.558;-0.448;2023-08-21T11:33:37;101890.34;;;20.41;81.22
60832;BME280;46665;51.558;-0.448;2023-08-21T11:36:21;101882.00;;;20.54;79.61
60832;BME280;46665;51.558;-0.448;2023-08-21T11:39:05;101871.13;;;20.67;76.70
60832;BME280;46665;51.558;-0.448;2023-08-21T11:41:57;101871.06;;;20.89;79.92
60832;BME280;46665;51.558;-0.448;2023-08-21T11:44:44;101871.41;;;21.14;77.11
60832;BME280;46665;51.558;-0.448;2023-08-21T11:47:34;101877.78;;;21.32;76.43
60832;BME280;46665;51.558;-0.448;2023-08-21T11:50:18;101867.53;;;21.24;75.35
60832;BME280;46665;51.558;-0.448;2023-08-21T11:53:03;101877.78;;;21.32;73.16
60832;BME280;46665;51.558;-0.448;2023-08-21T11:55:48;101866.91;;;21.44;74.21
60832;BME280;46665;51.558;-0.448;2023-08-21T11:58:31;101865.28;;;21.60;72.43
60832;BME280;46665;51.558;-0.448;2023-08-21T12:01:16;101868.22;;;21.73;73.43
60832;BME280;46665;51.558;-0.448;2023-08-21T12:04:01;101866.25;;;21.82;73.97
60832;BME280;46665;51.558;-0.448;2023-08-21T12:06:45;101861.81;;;21.98;73.19
60832;BME280;46665;51.558;-0.448;2023-08-21T12:09:29;101843.84;;;22.13;71.06
60832;BME280;46665;51.558;-0.448;2023-08-21T12:12:13;101857.53;;;22.18;69.80
60832;BME280;46665;51.558;-0.448;2023-08-21T12:14:57;101855.13;;;22.08;70.81
60832;BME280;46665;51.558;-0.448;2023-08-21T12:17:41;101857.84;;;22.25;70.25
60832;BME280;46665;51.558;-0.448;2023-08-21T12:20:25;101859.00;;;22.24;70.80
60832;BME280;46665;51.558;-0.448;2023-08-21T12:23:09;101856.00;;;22.47;69.93
60832;BME280;46665;51.558;-0.448;2023-08-21T12:25:53;101850.31;;;22.43;69.07
60832;BME280;46665;51.558;-0.448;2023-08-21T12:28:37;101853.03;;;22.52;68.31
60832;BME280;46665;51.558;-0.448;2023-08-21T12:31:21;101847.25;;;22.66;69.19
60832;BME280;46665;51.558;-0.448;2023-08-21T12:34:05;101841.13;;;22.52;67.96
60832;BME280;46665;51.558;-0.448;2023-08-21T12:36:50;101837.28;;;22.18;68.20
60832;BME280;46665;51.558;-0.448;2023-08-21T12:39:35;101839.66;;;21.98;68.88
60832;BME280;46665;51.558;-0.448;2023-08-21T12:42:20;101835.44;;;21.83;70.88
60832;BME280;46665;51.558;-0.448;2023-08-21T12:45:05;101825.44;;;22.08;72.56
60832;BME280;46665;51.558;-0.448;2023-08-21T12:47:49;101839.59;;;22.24;68.02
60832;BME280;46665;51.558;-0.448;2023-08-21T12:50:33;101821.81;;;22.25;66.80
60832;BME280;46665;51.558;-0.448;2023-08-21T12:53:17;101810.31;;;22.44;69.97
60832;BME280;46665;51.558;-0.448;2023-08-21T12:56:01;101818.22;;;22.63;68.56
60832;BME280;46665;51.558;-0.448;2023-08-21T12:58:46;101814.25;;;22.73;66.52
60832;BME280;46665;51.558;-0.448;2023-08-21T13:01:30;101813.03;;;22.83;67.22
60832;BME280;46665;51.558;-0.448;2023-08-21T13:04:15;101817.06;;;22.94;64.53
60832;BME280;46665;51.558;-0.448;2023-08-21T13:06:59;101814.56;;;23.01;64.26
60832;BME280;46665;51.558;-0.448;2023-08-21T13:09:44;101810.09;;;23.09;63.91
60832;BME280;46665;51.558;-0.448;2023-08-21T13:12:28;101804.91;;;23.07;63.50
60832;BME280;46665;51.558;-0.448;2023-08-21T13:15:12;101802.53;;;23.18;65.06
60832;BME280;46665;51.558;-0.448;2023-08-21T13:17:57;101812.91;;;23.30;64.46
60832;BME280;46665;51.558;-0.448;2023-08-21T13:20:44;101805.44;;;23.22;62.95
60832;BME280;46665;51.558;-0.448;2023-08-21T13:23:28;101808.06;;;23.39;63.93
60832;BME280;46665;51.558;-0.448;2023-08-21T13:26:12;101807.91;;;23.56;65.70
60832;BME280;46665;51.558;-0.448;2023-08-21T13:28:56;101799.56;;;23.56;63.56
60832;BME280;46665;51.558;-0.448;2023-08-21T13:31:40;101804.31;;;23.77;62.03
60832;BME280;46665;51.558;-0.448;2023-08-21T13:34:24;101801.72;;;23.72;62.94
60832;BME280;46665;51.558;-0.448;2023-08-21T13:37:08;101802.81;;;23.58;62.97
60832;BME280;46665;51.558;-0.448;2023-08-21T13:39:52;101801.44;;;23.31;63.97
60832;BME280;46665;51.558;-0.448;2023-08-21T13:42:38;101807.28;;;23.18;64.49
60832;BME280;46665;51.558;-0.448;2023-08-21T13:45:26;101794.75;;;23.11;66.75
60832;BME280;46665;51.558;-0.448;2023-08-21T13:48:10;101795.38;;;23.17;65.22
60832;BME280;46665;51.558;-0.448;2023-08-21T13:50:54;101796.69;;;23.32;64.98
60832;BME280;46665;51.558;-0.448;2023-08-21T13:53:37;101795.88;;;23.52;64.90
60832;BME280;46665;51.558;-0.448;2023-08-21T13:56:21;101786.16;;;23.25;65.96
60832;BME280;46665;51.558;-0.448;2023-08-21T13:59:05;101794.22;;;23.18;65.26
60832;BME280;46665;51.558;-0.448;2023-08-21T14:01:50;101778.06;;;22.90;63.84
60832;BME280;46665;51.558;-0.448;2023-08-21T14:04:34;101783.19;;;23.09;63.04